Time;durP1;ratioP1;P1;durP2;ratioP2;P2;SDS_P1;SDS_P2;PMS_P1;PMS_P2;Temp;Humidity;BMP_temperature;BMP_pressure;BME280_temperature;BME280_humidity;BME280_pressure;Samples;Min_cycle;Max_cycle;Signal;HPM_P1;HPM_P2
2023/01/19 00:00:35;;;;;;;23.33;4.10;;;19.90;80.30;;;;;;5053055;28;20298;-69
2023/01/19 00:03:04;;;;;;;23.20;3.57;;;19.80;79.60;;;;;;5054645;28;20262;-71
2023/01/19 00:05:32;;;;;;;19.77;4.23;;;19.80;80.10;;;;;;5054804;28;20194;-71
2023/01/19 00:08:13;;;;;;;22.70;3.83;;;19.90;80.20;;;;;;5052759;28;20652;-70
2023/01/19 00:10:52;;;;;;;16.67;3.67;;;19.80;79.50;;;;;;5052004;28;20172;-73
2023/01/19 00:13:20;;;;;;;12.10;3.13;;;19.80;79.30;;;;;;5047309;28;20184;-71
2023/01/19 00:15:47;;;;;;;20.70;3.97;;;19.70;78.60;;;;;;5067422;28;20241;-70
2023/01/19 00:18:14;;;;;;;14.67;3.20;;;19.70;79.20;;;;;;5053934;28;20693;-72
2023/01/19 00:20:44;;;;;;;14.33;3.33;;;19.70;78.30;;;;;;5050254;28;20212;-73
2023/01/19 00:23:11;;;;;;;20.23;4.03;;;19.70;78.40;;;;;;5050726;28;20210;-69
2023/01/19 00:25:41;;;;;;;19.60;3.63;;;19.80;78.80;;;;;;5041118;28;20618;-71
2023/01/19 00:28:12;;;;;;;19.47;3.53;;;19.80;78.10;;;;;;5052217;28;20586;-70
2023/01/19 00:30:41;;;;;;;21.03;3.70;;;19.90;76.80;;;;;;5052155;28;20172;-70
2023/01/19 00:33:09;;;;;;;13.50;3.00;;;19.90;76.10;;;;;;5053687;28;20188;-73
2023/01/19 00:35:37;;;;;;;15.37;3.60;;;19.90;76.50;;;;;;5053299;28;20180;-71
2023/01/19 00:38:04;;;;;;;22.67;3.60;;;20.00;76.50;;;;;;5052576;28;20179;-70
2023/01/19 00:40:31;;;;;;;23.23;3.97;;;20.10;75.90;;;;;;5053354;28;20264;-71
2023/01/19 00:42:59;;;;;;;18.87;3.40;;;20.00;75.50;;;;;;5053467;28;20696;-70
2023/01/19 00:45:26;;;;;;;21.73;3.53;;;20.10;75.70;;;;;;5053407;28;20168;-70
2023/01/19 00:47:56;;;;;;;12.40;3.17;;;20.10;74.90;;;;;;5053344;28;20184;-70
2023/01/19 00:50:28;;;;;;;20.23;3.37;;;20.10;75.20;;;;;;5052311;28;20173;-71
2023/01/19 00:52:59;;;;;;;19.77;4.00;;;20.20;75.50;;;;;;5052831;28;20180;-70
2023/01/19 00:55:30;;;;;;;22.97;3.70;;;20.20;74.60;;;;;;5052862;28;20198;-72
2023/01/19 00:57:57;;;;;;;16.00;3.47;;;20.20;74.60;;;;;;5052050;28;20545;-68
2023/01/19 01:00:25;;;;;;;19.23;4.07;;;20.20;74.90;;;;;;5053216;28;20228;-69
2023/01/19 01:02:53;;;;;;;14.27;3.30;;;20.30;75.30;;;;;;5053052;28;20176;-70
2023/01/19 01:05:21;;;;;;;25.93;3.73;;;20.30;75.10;;;;;;5051595;28;20218;-70
2023/01/19 01:07:49;;;;;;;12.87;2.90;;;20.10;75.00;;;;;;5052995;28;20168;-71
2023/01/19 01:10:18;;;;;;;15.97;3.70;;;20.10;75.00;;;;;;5052986;28;20621;-73
2023/01/19 01:12:46;;;;;;;18.67;3.90;;;20.10;75.10;;;;;;5053065;28;20180;-68
2023/01/19 01:15:15;;;;;;;20.53;3.80;;;20.10;75.40;;;;;;5052948;28;20199;-69
2023/01/19 01:17:46;;;;;;;19.07;3.53;;;20.00;74.50;;;;;;5052699;28;20235;-70
2023/01/19 01:20:16;;;;;;;18.00;3.87;;;20.00;75.30;;;;;;5052670;28;20219;-70
2023/01/19 01:22:46;;;;;;;20.40;4.70;;;20.00;75.50;;;;;;5051394;28;20585;-72
2023/01/19 01:25:18;;;;;;;18.23;3.87;;;20.10;75.60;;;;;;5052477;28;20259;-70
2023/01/19 01:27:46;;;;;;;21.57;3.40;;;20.20;75.00;;;;;;5052926;28;20180;-70
2023/01/19 01:30:14;;;;;;;20.87;3.63;;;20.00;74.60;;;;;;5052841;28;20172;-72
2023/01/19 01:32:42;;;;;;;14.57;3.87;;;19.90;74.90;;;;;;5052577;28;20190;-69
2023/01/19 01:35:10;;;;;;;18.27;3.70;;;19.80;74.70;;;;;;5052146;28;20619;-73
2023/01/19 01:37:38;;;;;;;12.77;2.77;;;19.80;75.00;;;;;;5052788;28;20175;-71
2023/01/19 01:40:07;;;;;;;18.90;3.87;;;19.90;74.20;;;;;;5052328;28;20601;-71
2023/01/19 01:42:35;;;;;;;16.53;3.77;;;19.90;74.00;;;;;;5052620;28;20267;-70
2023/01/19 01:45:06;;;;;;;20.40;3.60;;;19.80;74.60;;;;;;5052496;28;20211;-70
2023/01/19 01:47:48;;;;;;;14.50;3.43;;;19.90;74.70;;;;;;5052279;28;20634;-70
2023/01/19 01:50:20;;;;;;;15.93;2.67;;;20.00;73.20;;;;;;5052176;28;20215;-71
2023/01/19 01:52:55;;;;;;;15.90;3.50;;;19.90;73.50;;;;;;5052436;28;20187;-71
2023/01/19 01:55:24;;;;;;;15.87;3.23;;;19.90;74.70;;;;;;5052050;28;20657;-68
2023/01/19 01:57:56;;;;;;;21.37;3.50;;;19.90;75.80;;;;;;5052300;28;20172;-69
2023/01/19 02:00:24;;;;;;;22.67;3.77;;;19.80;75.80;;;;;;5052055;28;20286;-70
2023/01/19 02:02:53;;;;;;;18.40;3.40;;;19.70;75.50;;;;;;5052523;28;20176;-74
2023/01/19 02:05:32;;;;;;;14.43;3.50;;;19.60;76.70;;;;;;5051938;28;20179;-70
2023/01/19 02:13:58;;;;;;;21.90;3.60;;;19.10;79.10;;;;;;5052387;28;20243;-71
2023/01/19 02:16:25;;;;;;;13.10;3.07;;;19.20;79.70;;;;;;5052162;28;20233;-71
2023/01/19 02:18:52;;;;;;;16.13;3.50;;;19.10;80.50;;;;;;5051721;28;20194;-70
2023/01/19 02:22:08;;;;;;;13.13;3.40;;;19.20;81.20;;;;;;5051784;28;20219;-70
2023/01/19 02:24:36;;;;;;;15.67;3.07;;;19.00;80.90;;;;;;5038124;28;20187;-69
2023/01/19 02:27:06;;;;;;;11.70;2.77;;;18.90;81.20;;;;;;5052081;28;20178;-71
2023/01/19 02:29:34;;;;;;;14.10;2.83;;;18.90;80.60;;;;;;5052110;28;20184;-69
2023/01/19 02:32:02;;;;;;;12.60;2.43;;;19.00;78.60;;;;;;5052169;28;20175;-71
2023/01/19 02:34:31;;;;;;;11.93;2.23;;;19.00;78.10;;;;;;5051690;28;20187;-70
2023/01/19 02:37:00;;;;;;;12.33;2.87;;;19.10;77.90;;;;;;5052229;28;20627;-70
2023/01/19 02:39:37;;;;;;;13.73;3.13;;;19.30;77.50;;;;;;5051681;28;20187;-70
2023/01/19 02:42:16;;;;;;;18.23;3.97;;;19.20;77.30;;;;;;5050426;28;20578;-69
2023/01/19 02:44:47;;;;;;;13.77;2.80;;;19.20;76.70;;;;;;5052055;28;20180;-69
2023/01/19 02:47:15;;;;;;;11.10;2.43;;;19.40;75.60;;;;;;5051788;28;20176;-67
2023/01/19 02:49:42;;;;;;;11.97;3.20;;;19.50;74.00;;;;;;5051770;28;20188;-67
2023/01/19 02:52:17;;;;;;;12.17;2.80;;;19.80;73.00;;;;;;5051607;28;20220;-68
2023/01/19 02:54:55;;;;;;;17.10;2.90;;;20.10;72.00;;;;;;5051868;28;20178;-69
2023/01/19 02:57:34;;;;;;;9.53;2.83;;;20.30;69.90;;;;;;5051638;28;20187;-69
2023/01/19 03:00:50;;;;;;;18.90;3.50;;;20.30;69.10;;;;;;5052549;28;20291;-67
2023/01/19 03:03:29;;;;;;;13.97;2.67;;;20.30;69.50;;;;;;5055199;28;20263;-68
2023/01/19 03:06:02;;;;;;;17.10;2.83;;;20.30;68.30;;;;;;5055029;28;20183;-71
2023/01/19 03:08:46;;;;;;;14.30;2.87;;;20.40;67.70;;;;;;5055195;28;20616;-68
2023/01/19 03:11:14;;;;;;;15.33;3.57;;;20.50;67.40;;;;;;5055007;28;20635;-71
2023/01/19 03:13:54;;;;;;;16.77;2.70;;;20.40;68.50;;;;;;5055274;28;20183;-69
2023/01/19 03:16:37;;;;;;;14.03;3.13;;;20.50;68.90;;;;;;5055297;28;20183;-68
2023/01/19 03:19:33;;;;;;;17.17;3.30;;;20.50;69.00;;;;;;5054898;28;20199;-70
2023/01/19 03:22:05;;;;;;;14.37;3.53;;;20.40;68.60;;;;;;5055051;28;20405;-68
2023/01/19 03:24:37;;;;;;;17.37;3.07;;;20.30;67.90;;;;;;5055020;28;20671;-71
2023/01/19 03:27:10;;;;;;;13.40;3.20;;;20.30;68.00;;;;;;5055306;28;20179;-69
2023/01/19 03:29:41;;;;;;;12.97;3.10;;;20.20;67.40;;;;;;5055112;28;20168;-69
2023/01/19 03:32:14;;;;;;;11.40;2.77;;;20.20;68.10;;;;;;5055230;28;20180;-71
2023/01/19 03:34:43;;;;;;;12.77;3.10;;;20.10;68.00;;;;;;5054562;28;20172;-68
2023/01/19 03:37:14;;;;;;;8.80;2.83;;;20.20;67.90;;;;;;5054623;28;20186;-70
2023/01/19 03:39:42;;;;;;;11.47;2.60;;;20.20;68.10;;;;;;5054895;28;20537;-69
2023/01/19 03:42:14;;;;;;;13.07;2.67;;;20.20;68.00;;;;;;5054902;28;20180;-68
2023/01/19 03:44:45;;;;;;;22.20;2.90;;;20.20;68.60;;;;;;5054812;28;20168;-68
2023/01/19 03:47:14;;;;;;;12.97;3.07;;;20.30;68.40;;;;;;5054466;28;20191;-69
2023/01/19 03:49:44;;;;;;;16.13;3.60;;;20.40;68.30;;;;;;5054309;28;20257;-69
2023/01/19 03:52:11;;;;;;;13.60;3.20;;;20.30;69.30;;;;;;5054806;28;20207;-69
2023/01/19 03:54:42;;;;;;;15.40;3.30;;;20.30;70.10;;;;;;5054097;28;20203;-69
2023/01/19 03:57:09;;;;;;;15.13;2.83;;;20.30;70.40;;;;;;5053236;28;20176;-70
2023/01/19 03:59:37;;;;;;;13.17;3.30;;;20.30;70.90;;;;;;5054219;28;20242;-71
2023/01/19 04:02:04;;;;;;;16.73;2.97;;;20.00;71.00;;;;;;5054449;28;20230;-67
2023/01/19 04:04:31;;;;;;;13.93;3.20;;;19.90;72.50;;;;;;5053483;28;20187;-68
2023/01/19 04:07:00;;;;;;;17.67;3.10;;;19.90;72.10;;;;;;5053714;28;20180;-69
2023/01/19 04:09:28;;;;;;;9.57;2.63;;;19.70;73.20;;;;;;5052930;28;20190;-68
2023/01/19 04:11:56;;;;;;;12.27;2.80;;;19.80;72.80;;;;;;5037373;28;20184;-70
2023/01/19 04:14:23;;;;;;;10.13;2.77;;;19.70;72.30;;;;;;5041870;28;20178;-68
2023/01/19 04:16:51;;;;;;;12.03;2.63;;;19.80;73.20;;;;;;5053694;28;20178;-68
2023/01/19 04:19:18;;;;;;;11.87;2.40;;;19.80;72.00;;;;;;5039315;28;20205;-68
2023/01/19 04:21:49;;;;;;;10.70;2.57;;;19.90;71.50;;;;;;5053954;28;20671;-69
2023/01/19 04:24:17;;;;;;;11.03;2.50;;;19.90;71.00;;;;;;5053569;28;20190;-70
2023/01/19 04:26:44;;;;;;;10.20;2.20;;;19.90;71.50;;;;;;5053820;28;20226;-68
2023/01/19 04:29:13;;;;;;;8.77;2.13;;;19.90;70.40;;;;;;5053611;28;20168;-69
2023/01/19 04:31:40;;;;;;;12.40;1.97;;;20.10;70.60;;;;;;5033748;28;20191;-69
2023/01/19 04:34:07;;;;;;;7.13;1.67;;;20.30;70.00;;;;;;5034170;28;20600;-69
2023/01/19 04:36:35;;;;;;;11.33;2.13;;;20.30;69.20;;;;;;5053534;28;20187;-71
2023/01/19 04:39:03;;;;;;;14.00;2.57;;;20.40;68.80;;;;;;5053496;28;20253;-71
2023/01/19 04:41:31;;;;;;;11.03;2.60;;;20.50;68.20;;;;;;5053000;28;20208;-68
2023/01/19 04:43:58;;;;;;;11.57;2.40;;;20.30;69.30;;;;;;5053496;28;20179;-69
2023/01/19 04:46:39;;;;;;;12.17;2.50;;;20.30;70.50;;;;;;5050127;28;20184;-71
2023/01/19 04:49:07;;;;;;;13.57;2.63;;;19.90;71.00;;;;;;5050569;28;20179;-75
2023/01/19 04:51:36;;;;;;;11.93;2.27;;;19.90;71.70;;;;;;5047747;28;20273;-74
2023/01/19 04:54:09;;;;;;;10.93;2.17;;;19.80;72.20;;;;;;5053595;28;20246;-72
2023/01/19 04:56:39;;;;;;;10.93;2.73;;;19.80;72.40;;;;;;5051459;28;20184;-74
2023/01/19 04:59:07;;;;;;;9.47;2.40;;;19.70;71.50;;;;;;5053047;28;20180;-69
2023/01/19 05:01:34;;;;;;;11.70;1.90;;;20.00;71.00;;;;;;5051983;28;20223;-69
2023/01/19 05:04:18;;;;;;;;;;;;;;;;;;;;;
2023/01/19 05:06:45;;;;;;;14.30;2.80;;;20.00;70.80;;;;;;5049502;28;20186;-68
2023/01/19 05:09:19;;;;;;;18.37;3.13;;;20.00;70.00;;;;;;5053414;28;20278;-70
2023/01/19 05:11:47;;;;;;;10.47;2.33;;;20.20;69.50;;;;;;5053193;28;20202;-73
2023/01/19 05:14:14;;;;;;;14.50;2.97;;;20.10;70.40;;;;;;5053356;28;20278;-70
2023/01/19 05:16:42;;;;;;;11.83;2.83;;;20.10;70.60;;;;;;5054720;28;20187;-69
2023/01/19 05:19:09;;;;;;;13.37;2.57;;;20.00;69.50;;;;;;5052963;28;20176;-68
2023/01/19 05:21:36;;;;;;;8.87;2.43;;;20.20;69.00;;;;;;5054240;28;20376;-68
2023/01/19 05:24:04;;;;;;;12.37;2.30;;;20.20;68.70;;;;;;5051179;28;20175;-69
2023/01/19 05:26:31;;;;;;;11.37;2.40;;;20.30;68.40;;;;;;5056072;28;20659;-69
2023/01/19 05:28:58;;;;;;;10.20;2.67;;;20.10;69.00;;;;;;5051462;28;20188;-69
2023/01/19 05:31:26;;;;;;;12.67;2.60;;;20.20;69.70;;;;;;5056485;28;20656;-69
2023/01/19 05:33:53;;;;;;;15.77;2.73;;;20.20;69.50;;;;;;5054447;28;20184;-68
2023/01/19 05:36:20;;;;;;;8.87;2.37;;;20.20;69.20;;;;;;5050360;28;20180;-69
2023/01/19 05:38:48;;;;;;;10.60;2.90;;;20.20;68.90;;;;;;5050836;28;20180;-69
2023/01/19 05:41:16;;;;;;;12.73;2.77;;;20.30;68.70;;;;;;5049630;28;20242;-70
2023/01/19 05:43:43;;;;;;;13.23;2.80;;;20.30;68.90;;;;;;5053601;28;20195;-69
2023/01/19 05:46:11;;;;;;;11.57;3.00;;;20.40;68.80;;;;;;5052115;28;20188;-69
2023/01/19 05:48:38;;;;;;;10.20;2.70;;;20.30;68.60;;;;;;5052040;28;20417;-70
2023/01/19 05:51:07;;;;;;;11.60;2.60;;;20.20;69.30;;;;;;5052085;28;20224;-70
2023/01/19 05:53:34;;;;;;;15.83;3.27;;;20.10;70.00;;;;;;5055960;28;20221;-69
2023/01/19 05:56:10;;;;;;;11.40;2.57;;;20.10;70.10;;;;;;5055090;28;20688;-70
2023/01/19 05:58:41;;;;;;;13.00;3.07;;;20.20;70.00;;;;;;5056751;28;20245;-70
2023/01/19 06:01:09;;;;;;;11.93;2.60;;;20.30;69.50;;;;;;5051042;28;20211;-70
2023/01/19 06:03:38;;;;;;;12.77;2.97;;;20.30;69.20;;;;;;5057637;28;20233;-69
2023/01/19 06:06:05;;;;;;;20.87;3.23;;;20.30;69.70;;;;;;5057000;28;20266;-70
2023/01/19 06:08:33;;;;;;;12.37;2.93;;;20.20;70.20;;;;;;5053486;28;20182;-70
2023/01/19 06:11:00;;;;;;;15.37;3.20;;;20.20;70.80;;;;;;5063109;28;20532;-71
2023/01/19 06:13:28;;;;;;;10.37;2.77;;;20.10;71.00;;;;;;5062454;28;20184;-70
2023/01/19 06:16:02;;;;;;;11.43;2.80;;;20.10;71.50;;;;;;5054196;28;20191;-71
2023/01/19 06:18:29;;;;;;;14.70;2.53;;;20.00;72.30;;;;;;5052695;28;20180;-71
2023/01/19 06:20:59;;;;;;;16.37;3.60;;;19.90;73.20;;;;;;5051488;28;20230;-71
2023/01/19 06:23:29;;;;;;;10.40;2.37;;;20.00;73.50;;;;;;5053501;28;20216;-70
2023/01/19 06:25:56;;;;;;;10.73;2.47;;;19.90;73.30;;;;;;5052435;28;20180;-70
2023/01/19 06:28:24;;;;;;;14.70;2.97;;;19.90;73.50;;;;;;5052512;28;20271;-69
2023/01/19 06:30:53;;;;;;;16.57;2.67;;;19.80;73.10;;;;;;5048201;28;20314;-71
2023/01/19 06:33:21;;;;;;;13.60;3.37;;;19.80;73.50;;;;;;5052544;28;20650;-69
2023/01/19 06:35:50;;;;;;;17.13;3.80;;;19.90;73.40;;;;;;5050575;28;20584;-69
2023/01/19 06:38:18;;;;;;;17.17;3.23;;;20.00;74.00;;;;;;5054744;28;20279;-70
2023/01/19 06:40:52;;;;;;;17.33;2.80;;;19.90;74.10;;;;;;5054829;28;20235;-70
2023/01/19 06:43:19;;;;;;;13.73;2.77;;;19.90;74.40;;;;;;5052092;28;20542;-70
2023/01/19 06:45:47;;;;;;;15.27;3.30;;;19.90;74.70;;;;;;5053813;28;20206;-70
2023/01/19 06:48:14;;;;;;;14.03;3.30;;;20.00;74.90;;;;;;5054333;28;20171;-70
2023/01/19 06:50:45;;;;;;;13.73;3.20;;;20.00;74.60;;;;;;5051897;28;20203;-69
2023/01/19 06:53:13;;;;;;;10.83;2.87;;;20.00;74.30;;;;;;5061568;28;20585;-70
2023/01/19 06:55:40;;;;;;;8.47;3.13;;;19.90;74.10;;;;;;5055237;28;20589;-70
2023/01/19 06:58:08;;;;;;;13.73;2.80;;;19.80;74.70;;;;;;5058029;28;20172;-69
2023/01/19 07:00:35;;;;;;;16.03;3.30;;;19.80;74.70;;;;;;5056776;28;20204;-68
2023/01/19 07:03:05;;;;;;;13.20;2.93;;;19.80;74.80;;;;;;5060402;28;20250;-69
2023/01/19 07:05:34;;;;;;;12.87;2.73;;;19.80;74.80;;;;;;5060501;28;20176;-71
2023/01/19 07:08:02;;;;;;;16.77;3.07;;;19.80;74.20;;;;;;5064993;28;20187;-69
2023/01/19 07:10:29;;;;;;;18.17;3.10;;;19.80;74.50;;;;;;5055884;28;20297;-70
2023/01/19 07:12:57;;;;;;;11.87;3.00;;;19.90;75.00;;;;;;5060967;28;20188;-70
2023/01/19 07:15:25;;;;;;;14.00;3.07;;;19.80;75.50;;;;;;5054783;28;20279;-69
2023/01/19 07:17:52;;;;;;;11.43;3.33;;;19.80;76.20;;;;;;5055479;28;20215;-69
2023/01/19 07:20:19;;;;;;;11.83;3.10;;;19.70;76.70;;;;;;5055713;28;20220;-71
2023/01/19 07:22:47;;;;;;;13.60;2.67;;;19.60;77.10;;;;;;5055644;28;20196;-72
2023/01/19 07:25:15;;;;;;;17.73;3.43;;;19.60;77.60;;;;;;5053836;28;20180;-69
2023/01/19 07:27:43;;;;;;;10.13;2.70;;;19.50;77.50;;;;;;5054249;28;20713;-70
2023/01/19 07:30:11;;;;;;;13.17;2.63;;;19.40;76.60;;;;;;5051849;28;20207;-71
2023/01/19 07:32:38;;;;;;;15.60;3.23;;;19.50;76.70;;;;;;5054427;28;20176;-71
2023/01/19 07:35:06;;;;;;;9.50;2.30;;;19.50;76.50;;;;;;5049474;28;20200;-70
2023/01/19 07:37:34;;;;;;;11.63;2.67;;;19.50;76.40;;;;;;5048877;28;20207;-70
2023/01/19 07:40:01;;;;;;;12.80;3.20;;;19.50;77.50;;;;;;5057539;28;20183;-69
2023/01/19 07:42:29;;;;;;;13.03;3.00;;;19.40;81.30;;;;;;5054286;28;20187;-71
2023/01/19 07:44:56;;;;;;;13.00;2.63;;;19.30;82.40;;;;;;5053321;28;20272;-68
2023/01/19 07:47:23;;;;;;;14.73;2.50;;;19.10;82.90;;;;;;5053222;28;20184;-71
2023/01/19 07:49:51;;;;;;;19.40;2.70;;;18.90;82.70;;;;;;5053774;28;20176;-70
2023/01/19 07:52:18;;;;;;;14.73;3.27;;;18.90;83.40;;;;;;5054191;28;20240;-69
2023/01/19 07:54:49;;;;;;;13.57;3.43;;;18.90;83.50;;;;;;5053750;28;20184;-69
2023/01/19 07:57:18;;;;;;;13.63;2.87;;;18.90;83.20;;;;;;5046709;28;20211;-69
2023/01/19 07:59:45;;;;;;;13.93;2.93;;;19.00;82.60;;;;;;5052531;28;20176;-71
2023/01/19 08:02:12;;;;;;;14.17;3.30;;;18.90;81.90;;;;;;5053687;28;20222;-69
2023/01/19 08:04:40;;;;;;;14.23;3.03;;;18.80;82.20;;;;;;5060151;28;20173;-69
2023/01/19 08:07:08;;;;;;;14.60;2.67;;;18.90;81.90;;;;;;5050518;28;20190;-69
2023/01/19 08:09:35;;;;;;;11.43;2.93;;;18.90;81.40;;;;;;5054986;28;20195;-68
2023/01/19 08:12:03;;;;;;;12.57;3.30;;;19.00;80.80;;;;;;5062618;28;20196;-70
2023/01/19 08:14:30;;;;;;;9.30;2.57;;;19.00;80.10;;;;;;5055859;28;20195;-69
2023/01/19 08:17:02;;;;;;;7.80;2.70;;;19.10;79.10;;;;;;5055629;28;20183;-73
2023/01/19 08:19:29;;;;;;;11.80;2.37;;;19.10;78.50;;;;;;5049424;28;20230;-69
2023/01/19 08:21:58;;;;;;;10.80;2.57;;;19.20;77.90;;;;;;5045353;28;20227;-68
2023/01/19 08:24:27;;;;;;;10.67;2.70;;;19.20;77.60;;;;;;5051824;28;20184;-71
2023/01/19 08:27:02;;;;;;;6.10;2.10;;;19.20;77.40;;;;;;5060980;28;20583;-68
2023/01/19 08:29:30;;;;;;;10.87;2.77;;;19.30;77.60;;;;;;5049474;28;20190;-68
2023/01/19 08:32:00;;;;;;;14.83;3.00;;;19.30;77.30;;;;;;5040628;28;20191;-69
2023/01/19 08:34:31;;;;;;;10.07;2.03;;;19.30;77.20;;;;;;5057094;28;20186;-70
2023/01/19 08:36:59;;;;;;;9.40;2.67;;;19.30;77.00;;;;;;5051471;28;20180;-70
2023/01/19 08:39:27;;;;;;;10.67;2.73;;;19.30;76.90;;;;;;5054773;28;20191;-68
2023/01/19 08:41:54;;;;;;;12.50;3.10;;;19.40;76.90;;;;;;5070660;28;20246;-69
2023/01/19 08:44:21;;;;;;;9.73;3.00;;;19.40;77.10;;;;;;5062871;28;20232;-69
2023/01/19 08:46:49;;;;;;;16.90;3.17;;;19.40;76.90;;;;;;5051950;28;20198;-68
2023/01/19 08:49:16;;;;;;;10.93;2.20;;;19.40;77.00;;;;;;5063286;28;20207;-70
2023/01/19 08:51:45;;;;;;;11.37;2.60;;;19.40;77.40;;;;;;5046220;28;20235;-70
2023/01/19 08:54:15;;;;;;;9.73;2.50;;;19.40;77.30;;;;;;5060392;28;20274;-69
2023/01/19 08:56:43;;;;;;;11.20;2.50;;;19.40;77.50;;;;;;5068156;28;20270;-70
2023/01/19 08:59:10;;;;;;;12.83;2.67;;;19.30;76.90;;;;;;5055533;28;20214;-70
2023/01/19 09:01:38;;;;;;;11.80;2.77;;;19.30;76.90;;;;;;5063655;28;20207;-69
2023/01/19 09:04:06;;;;;;;8.37;2.53;;;19.30;77.10;;;;;;5050474;28;20198;-69
2023/01/19 09:06:33;;;;;;;12.80;2.50;;;19.30;77.10;;;;;;5051493;28;20548;-68
2023/01/19 09:09:01;;;;;;;15.13;2.57;;;19.30;77.30;;;;;;5052623;28;20180;-71
2023/01/19 09:11:29;;;;;;;10.23;2.40;;;19.30;77.20;;;;;;5052611;28;20176;-69
2023/01/19 09:13:56;;;;;;;8.80;2.70;;;19.30;77.10;;;;;;5052717;28;20183;-69
2023/01/19 09:16:25;;;;;;;9.93;2.37;;;19.30;77.20;;;;;;5053020;28;20271;-70
2023/01/19 09:18:53;;;;;;;11.63;2.57;;;19.40;77.40;;;;;;5051340;28;20179;-69
2023/01/19 09:21:20;;;;;;;14.67;3.20;;;19.30;77.50;;;;;;5052135;28;20207;-70
2023/01/19 09:23:48;;;;;;;14.03;3.10;;;19.40;77.70;;;;;;5050796;28;20176;-71
2023/01/19 09:26:16;;;;;;;11.23;2.63;;;19.40;77.60;;;;;;5044806;28;20180;-70
2023/01/19 09:28:43;;;;;;;12.50;2.53;;;19.40;77.50;;;;;;5052589;28;20195;-72
2023/01/19 09:31:10;;;;;;;11.87;2.93;;;19.50;77.70;;;;;;5052423;28;20188;-70
2023/01/19 09:33:38;;;;;;;11.00;3.30;;;19.50;77.90;;;;;;5052650;28;20172;-70
2023/01/19 09:36:06;;;;;;;13.30;2.90;;;19.50;77.80;;;;;;5050796;28;20192;-70
2023/01/19 09:38:33;;;;;;;11.40;3.00;;;19.50;77.70;;;;;;5051003;28;20180;-71
2023/01/19 09:41:01;;;;;;;10.07;2.70;;;19.40;77.50;;;;;;5051848;28;20666;-69
2023/01/19 09:43:46;;;;;;;14.33;2.83;;;19.40;77.40;;;;;;5053259;28;20690;-71
2023/01/19 09:46:26;;;;;;;14.67;3.30;;;19.40;77.70;;;;;;5065191;28;20536;-69
2023/01/19 09:48:56;;;;;;;12.60;2.80;;;19.40;77.50;;;;;;5061683;28;20183;-72
2023/01/19 09:51:32;;;;;;;12.43;2.83;;;19.30;77.70;;;;;;5071579;28;20261;-71
2023/01/19 09:54:05;;;;;;;13.87;3.23;;;19.30;78.00;;;;;;5059198;28;20675;-71
2023/01/19 09:56:33;;;;;;;13.90;2.90;;;19.30;78.00;;;;;;5045827;28;20179;-71
2023/01/19 09:59:02;;;;;;;15.90;3.00;;;19.30;78.40;;;;;;5072212;28;20194;-71
2023/01/19 10:01:41;;;;;;;14.13;2.70;;;19.30;78.40;;;;;;5061162;28;20221;-71
2023/01/19 10:04:36;;;;;;;10.60;2.47;;;19.40;78.50;;;;;;5070229;28;20642;-69
2023/01/19 10:07:15;;;;;;;12.37;3.40;;;19.40;78.20;;;;;;5068763;28;20560;-68
2023/01/19 10:10:15;;;;;;;13.37;2.60;;;19.50;77.90;;;;;;5051065;28;20224;-69
2023/01/19 10:12:53;;;;;;;12.30;2.70;;;19.70;76.90;;;;;;5052832;28;20179;-69
2023/01/19 10:15:36;;;;;;;9.97;2.67;;;19.80;76.00;;;;;;5059765;28;20682;-70
2023/01/19 10:18:46;;;;;;;19.63;2.50;;;20.00;75.30;;;;;;5062539;28;20219;-69
2023/01/19 10:21:30;;;;;;;13.03;2.70;;;20.10;75.20;;;;;;4985331;28;20804;-70
2023/01/19 10:24:07;;;;;;;7.13;1.77;;;20.20;75.30;;;;;;5053825;28;20196;-68
2023/01/19 10:26:42;;;;;;;18.13;2.73;;;20.30;74.20;;;;;;5056254;28;20206;-69
2023/01/19 10:29:26;;;;;;;10.43;2.50;;;20.30;74.20;;;;;;5056025;28;20590;-69
2023/01/19 10:32:07;;;;;;;13.90;2.63;;;20.30;74.30;;;;;;5036433;28;20742;-70
2023/01/19 10:34:35;;;;;;;10.00;2.43;;;20.30;74.60;;;;;;5043766;28;20579;-69
2023/01/19 10:37:21;;;;;;;12.77;2.47;;;20.30;74.80;;;;;;5055194;28;20537;-69
2023/01/19 10:40:07;;;;;;;14.00;2.73;;;20.30;75.00;;;;;;5056058;28;20176;-69
2023/01/19 10:42:35;;;;;;;16.80;2.80;;;20.30;75.40;;;;;;5054793;28;20279;-69
2023/01/19 10:45:04;;;;;;;13.80;2.53;;;20.30;75.60;;;;;;5055966;28;20184;-70
2023/01/19 10:47:35;;;;;;;14.43;2.70;;;20.30;75.50;;;;;;5055452;28;20180;-68
2023/01/19 10:50:40;;;;;;;9.27;2.20;;;20.30;75.80;;;;;;5055655;28;20557;-68
2023/01/19 10:53:20;;;;;;;16.93;2.60;;;20.30;76.00;;;;;;5008475;28;20622;-68
2023/01/19 10:56:08;;;;;;;13.17;2.30;;;20.30;75.40;;;;;;5052279;28;20566;-68
2023/01/19 10:58:35;;;;;;;12.23;2.70;;;20.30;75.40;;;;;;5055534;28;20184;-69
2023/01/19 11:01:17;;;;;;;10.27;2.57;;;20.30;75.10;;;;;;5054434;28;20741;-69
2023/01/19 11:03:44;;;;;;;11.57;2.33;;;20.30;75.10;;;;;;5054880;28;20168;-70
2023/01/19 11:06:14;;;;;;;11.73;2.13;;;20.30;74.90;;;;;;5055284;28;20180;-69
2023/01/19 11:08:44;;;;;;;12.60;2.23;;;20.30;74.90;;;;;;5052108;28;20710;-69
2023/01/19 11:11:11;;;;;;;15.33;2.93;;;20.40;74.90;;;;;;5053253;28;20184;-71
2023/01/19 11:13:40;;;;;;;15.87;2.67;;;20.40;75.20;;;;;;5055474;28;20530;-70
2023/01/19 11:16:22;;;;;;;11.50;2.00;;;20.50;74.90;;;;;;5055224;28;20176;-69
2023/01/19 11:18:53;;;;;;;7.17;2.10;;;20.40;74.40;;;;;;5054815;28;20200;-69
2023/01/19 11:21:26;;;;;;;15.73;2.97;;;20.40;74.20;;;;;;5057115;28;20214;-68
2023/01/19 11:24:00;;;;;;;13.70;2.93;;;20.40;74.10;;;;;;5053990;28;20270;-70
2023/01/19 11:26:34;;;;;;;8.43;2.03;;;20.40;73.70;;;;;;5050313;28;20216;-69
2023/01/19 11:29:03;;;;;;;8.40;2.03;;;20.40;73.70;;;;;;5057036;28;20186;-70
2023/01/19 11:31:32;;;;;;;13.37;2.23;;;20.40;73.40;;;;;;5062696;28;20199;-71
2023/01/19 11:34:02;;;;;;;12.97;2.43;;;20.50;73.40;;;;;;5058835;28;20179;-70
2023/01/19 11:36:33;;;;;;;13.13;2.80;;;20.50;73.90;;;;;;5073651;28;20179;-71
2023/01/19 11:39:15;;;;;;;20.30;2.07;;;20.50;74.30;;;;;;5063471;28;20268;-69
2023/01/19 11:41:42;;;;;;;9.10;2.27;;;20.50;74.60;;;;;;5071926;28;20215;-70
2023/01/19 11:44:21;;;;;;;10.43;2.20;;;20.50;74.90;;;;;;5064104;28;20183;-72
2023/01/19 11:46:58;;;;;;;9.27;1.80;;;20.40;75.10;;;;;;5074087;28;20183;-67
2023/01/19 11:50:04;;;;;;;14.63;2.60;;;20.50;75.30;;;;;;5067967;28;20244;-69
2023/01/19 11:53:03;;;;;;;18.83;2.80;;;20.40;75.50;;;;;;5070935;28;20257;-71
2023/01/19 11:55:48;;;;;;;9.90;2.23;;;20.40;75.60;;;;;;5043981;28;20232;-70
2023/01/19 11:58:19;;;;;;;12.83;3.10;;;20.40;75.50;;;;;;5048330;28;20186;-70
2023/01/19 12:01:05;;;;;;;11.17;2.00;;;20.40;75.00;;;;;;5073981;28;20294;-69
2023/01/19 12:03:32;;;;;;;15.33;2.20;;;20.40;74.40;;;;;;5054101;28;20180;-69
2023/01/19 12:06:15;;;;;;;15.37;2.37;;;20.40;74.30;;;;;;5052781;28;20183;-69
2023/01/19 12:09:05;;;;;;;12.50;2.53;;;20.40;74.20;;;;;;5054165;28;20176;-71
2023/01/19 12:11:37;;;;;;;14.93;2.97;;;20.40;74.10;;;;;;5046679;28;20203;-68
2023/01/19 12:14:06;;;;;;;12.43;2.30;;;20.40;74.30;;;;;;5052483;28;20590;-68
2023/01/19 12:16:37;;;;;;;7.67;2.50;;;20.50;73.70;;;;;;5053906;28;20184;-70
2023/01/19 12:19:27;;;;;;;15.30;2.70;;;20.50;73.70;;;;;;5051597;28;20512;-69
2023/01/19 12:21:55;;;;;;;11.63;1.97;;;20.50;73.10;;;;;;5052603;28;20232;-70
2023/01/19 12:24:40;;;;;;;19.10;2.77;;;20.40;72.80;;;;;;5054098;28;20180;-70
2023/01/19 12:27:37;;;;;;;11.20;2.57;;;20.50;72.70;;;;;;5053816;28;20179;-71
2023/01/19 12:30:15;;;;;;;9.70;2.43;;;20.50;72.50;;;;;;5053138;28;20179;-69
2023/01/19 12:32:43;;;;;;;13.67;2.47;;;20.50;72.60;;;;;;5051864;28;20271;-68
2023/01/19 12:35:47;;;;;;;12.50;2.73;;;20.50;72.50;;;;;;5046567;28;20200;-69
2023/01/19 12:38:37;;;;;;;10.40;2.50;;;20.40;72.60;;;;;;5060854;28;20193;-69
2023/01/19 12:41:32;;;;;;;12.53;2.10;;;20.40;72.70;;;;;;5059268;28;20223;-68
2023/01/19 12:44:15;;;;;;;16.33;3.37;;;20.40;72.80;;;;;;5038795;28;20187;-69
2023/01/19 12:47:06;;;;;;;15.20;2.77;;;20.40;72.80;;;;;;5052920;28;20202;-69
2023/01/19 12:49:51;;;;;;;15.43;2.80;;;20.30;73.20;;;;;;5064047;28;20171;-72
2023/01/19 12:52:34;;;;;;;11.07;2.40;;;20.40;73.70;;;;;;5043005;28;20223;-69
2023/01/19 12:55:17;;;;;;;12.83;2.30;;;20.40;73.80;;;;;;5071830;28;20174;-69
2023/01/19 12:57:47;;;;;;;13.23;2.27;;;20.50;74.30;;;;;;5070546;28;20214;-70
2023/01/19 13:00:24;;;;;;;17.00;2.50;;;20.50;74.50;;;;;;5062143;28;20191;-69
2023/01/19 13:02:57;;;;;;;19.57;2.93;;;20.50;74.60;;;;;;5064747;28;20195;-70
2023/01/19 13:05:39;;;;;;;12.17;2.53;;;20.50;74.60;;;;;;5049495;28;20191;-69
2023/01/19 13:08:13;;;;;;;14.43;2.33;;;20.50;73.40;;;;;;5048271;28;20192;-68